Time;durP1;ratioP1;P1;durP2;ratioP2;P2;SDS_P1;SDS_P2;PMS_P1;PMS_P2;Temp;Humidity;BMP_temperature;BMP_pressure;BME280_temperature;BME280_humidity;BME280_pressure;Samples;Min_cycle;Max_cycle;Signal;HPM_P1;HPM_P2
2021/01/14 00:00:45;;;;;;;59.83;26.83;;;;;;;-1.74;72.94;98121.31;124871;1142;26957;-62
2021/01/14 00:03:12;;;;;;;44.67;21.47;;;;;;;-1.73;72.96;98122.95;124614;1142;22747;-61
2021/01/14 00:05:41;;;;;;;36.67;19.17;;;;;;;-1.72;72.85;98120.04;124724;1143;22689;-62
2021/01/14 00:08:09;;;;;;;32.20;18.13;;;;;;;-1.69;73.08;98118.80;124791;1142;22687;-62
2021/01/14 00:10:36;;;;;;;39.80;20.13;;;;;;;-1.69;72.91;98119.63;124731;1142;23476;-62
2021/01/14 00:13:07;;;;;;;35.17;17.77;;;;;;;-1.68;72.71;98120.44;124747;1143;23305;-63
2021/01/14 00:15:35;;;;;;;37.85;19.80;;;;;;;-1.70;73.13;98115.31;124598;1143;22841;-62
2021/01/14 00:18:02;;;;;;;31.47;17.23;;;;;;;-1.70;73.23;98103.81;124757;1142;22732;-62
2021/01/14 00:20:29;;;;;;;32.70;18.00;;;;;;;-1.69;73.38;98113.46;124619;1143;22764;-62
2021/01/14 00:22:57;;;;;;;32.90;18.67;;;;;;;-1.66;73.10;98123.72;124835;1142;22765;-63
2021/01/14 00:25:25;;;;;;;47.97;27.50;;;;;;;-1.66;73.17;98118.37;124617;1142;22668;-62
2021/01/14 00:27:52;;;;;;;34.90;21.97;;;;;;;-1.65;73.12;98122.69;124783;1142;22691;-62
2021/01/14 00:30:30;;;;;;;34.40;18.80;;;;;;;-1.62;73.09;98122.27;124726;1142;23310;-62
2021/01/14 00:33:00;;;;;;;32.25;17.62;;;;;;;-1.61;73.10;98115.89;124810;1142;22693;-62
2021/01/14 00:35:28;;;;;;;29.70;15.27;;;;;;;-1.61;73.33;98118.56;124699;1142;22817;-62
2021/01/14 00:37:55;;;;;;;26.47;15.77;;;;;;;-1.57;73.00;98119.75;124751;1142;23307;-63
2021/01/14 00:40:33;;;;;;;32.60;15.70;;;;;;;-1.56;73.15;98113.38;124707;1142;22897;-62
2021/01/14 00:43:05;;;;;;;29.23;15.87;;;;;;;-1.57;72.93;98112.56;124790;1142;22673;-62
2021/01/14 00:45:32;;;;;;;30.67;15.37;;;;;;;-1.55;73.00;98115.02;124789;1142;22742;-62
2021/01/14 00:48:04;;;;;;;26.50;14.87;;;;;;;-1.55;73.11;98112.34;124631;1142;22742;-62
2021/01/14 00:50:31;;;;;;;32.97;15.93;;;;;;;-1.54;72.78;98111.31;124698;1142;22694;-61
2021/01/14 00:52:59;;;;;;;32.73;17.00;;;;;;;-1.54;72.89;98113.98;124733;1142;23083;-63
2021/01/14 00:55:26;;;;;;;27.03;16.00;;;;;;;-1.55;72.68;98118.51;124054;1142;22766;-61
2021/01/14 00:57:54;;;;;;;30.57;15.73;;;;;;;-1.56;73.13;98129.41;120166;1142;23019;-61
2021/01/14 01:00:22;;;;;;;35.80;19.30;;;;;;;-1.56;72.83;98130.22;124654;1142;22752;-61
2021/01/14 01:02:52;;;;;;;37.97;20.23;;;;;;;-1.54;73.11;98124.67;124666;1142;22716;-61
2021/01/14 01:05:20;;;;;;;39.43;19.53;;;;;;;-1.53;73.12;98124.45;124634;1143;22748;-62
2021/01/14 01:07:59;;;;;;;43.83;21.10;;;;;;;-1.53;72.88;98119.12;124741;1142;22679;-61
2021/01/14 01:10:27;;;;;;;37.87;18.23;;;;;;;-1.51;72.91;98116.23;124633;1142;22969;-61
2021/01/14 01:12:56;;;;;;;27.20;15.23;;;;;;;-1.48;73.09;98121.16;124697;1142;22686;-61
2021/01/14 01:15:24;;;;;;;30.83;16.17;;;;;;;-1.49;72.80;98127.52;124762;1142;22692;-60
2021/01/14 01:17:51;;;;;;;28.17;15.20;;;;;;;-1.48;72.82;98113.95;124652;1142;22648;-62
2021/01/14 01:20:19;;;;;;;26.80;14.20;;;;;;;-1.47;72.41;98114.78;124733;1143;22673;-61
2021/01/14 01:22:46;;;;;;;23.50;14.30;;;;;;;-1.46;72.48;98119.91;124690;1142;22680;-62
2021/01/14 01:25:14;;;;;;;26.15;13.85;;;;;;;-1.47;72.10;98117.45;124839;1142;22655;-62
2021/01/14 01:27:41;;;;;;;22.53;11.90;;;;;;;-1.48;72.51;98113.95;124562;1142;22672;-62
2021/01/14 01:30:09;;;;;;;23.47;13.73;;;;;;;-1.49;72.10;98124.85;124798;1142;23912;-61
2021/01/14 01:32:36;;;;;;;28.33;13.57;;;;;;;-1.50;72.47;98125.89;124626;1142;22679;-62
2021/01/14 01:35:04;;;;;;;22.83;13.43;;;;;;;-1.51;72.35;98127.73;124797;1143;22956;-62
2021/01/14 01:37:35;;;;;;;20.13;11.73;;;;;;;-1.51;71.93;98124.25;124705;1142;23377;-62
2021/01/14 01:40:04;;;;;;;21.00;11.83;;;;;;;-1.51;71.83;98118.91;124830;1142;22672;-61
2021/01/14 01:42:31;;;;;;;23.77;13.73;;;;;;;-1.51;71.56;98121.58;124613;1142;24682;-62
2021/01/14 01:45:00;;;;;;;25.30;14.10;;;;;;;-1.50;72.01;98128.55;124890;1142;22850;-62
2021/01/14 01:47:32;;;;;;;27.83;15.03;;;;;;;-1.50;71.73;98125.89;124576;1142;23555;-62
2021/01/14 01:50:01;;;;;;;32.17;15.57;;;;;;;-1.50;72.12;98123.21;124817;1142;22767;-62
2021/01/14 01:52:33;;;;;;;26.70;15.17;;;;;;;-1.50;71.92;98123.21;124758;1142;22712;-62
2021/01/14 01:55:03;;;;;;;30.20;16.80;;;;;;;-1.49;72.05;98120.33;124789;1142;23485;-61
2021/01/14 01:57:30;;;;;;;27.60;15.35;;;;;;;-1.49;72.37;98123.00;124664;1143;22655;-62
2021/01/14 01:59:58;;;;;;;33.30;17.27;;;;;;;-1.50;72.85;98121.36;124854;1142;22670;-61
2021/01/14 02:02:26;;;;;;;27.83;17.30;;;;;;;-1.49;72.62;98114.17;124765;1143;22716;-61
2021/01/14 02:04:54;;;;;;;28.93;15.70;;;;;;;-1.49;72.71;98116.84;124585;1142;22795;-61
2021/01/14 02:07:49;;;;;;;32.77;16.80;;;;;;;-1.50;72.83;98123.21;124770;1142;22668;-63
2021/01/14 02:10:16;;;;;;;30.17;16.90;;;;;;;-1.48;72.34;98131.83;124799;1142;23498;-61
2021/01/14 02:13:13;;;;;;;24.10;14.33;;;;;;;-1.49;72.73;98130.20;124834;1143;22778;-62
2021/01/14 02:15:41;;;;;;;29.40;15.63;;;;;;;-1.47;72.39;98128.95;124590;1143;23387;-61
2021/01/14 02:18:08;;;;;;;29.77;16.33;;;;;;;-1.45;73.01;98126.06;124626;1143;22791;-61
2021/01/14 02:20:36;;;;;;;32.57;17.30;;;;;;;-1.45;72.33;98132.23;124695;1142;22684;-61
2021/01/14 02:23:26;;;;;;;34.13;17.60;;;;;;;-1.46;72.22;98132.44;124921;1142;22683;-61
2021/01/14 02:26:15;;;;;;;32.23;16.57;;;;;;;-1.53;72.17;98132.47;124778;1142;22715;-70
2021/01/14 02:28:43;;;;;;;30.50;14.87;;;;;;;-1.55;72.22;98139.88;124622;1142;22681;-60
2021/01/14 02:31:14;;;;;;;29.17;16.20;;;;;;;-1.57;72.15;98128.58;124772;1142;23871;-58
2021/01/14 02:33:43;;;;;;;28.63;15.90;;;;;;;-1.59;72.47;98130.67;124819;1142;22690;-61
2021/01/14 02:36:10;;;;;;;30.97;16.40;;;;;;;-1.58;72.84;98129.61;124570;1142;23732;-62
2021/01/14 02:38:38;;;;;;;35.67;17.50;;;;;;;-1.56;72.75;98130.22;124809;1143;22780;-58
2021/01/14 02:41:05;;;;;;;29.20;17.03;;;;;;;-1.55;72.80;98128.37;124642;1143;24021;-62
2021/01/14 02:43:35;;;;;;;31.90;17.37;;;;;;;-1.52;72.91;98118.09;124795;1142;22773;-62
2021/01/14 02:46:04;;;;;;;31.23;18.27;;;;;;;-1.49;72.99;98117.66;124821;1142;22677;-62
2021/01/14 02:48:38;;;;;;;34.83;18.07;;;;;;;-1.46;72.49;98119.09;124730;1142;22765;-63
2021/01/14 02:51:07;;;;;;;37.40;18.37;;;;;;;-1.44;72.66;98114.32;124747;1143;22735;-62
2021/01/14 02:53:34;;;;;;;31.53;16.87;;;;;;;-1.46;73.18;98105.73;124776;1143;22775;-62
2021/01/14 02:56:02;;;;;;;35.23;19.67;;;;;;;-1.45;73.21;98112.72;124654;1142;22666;-62
2021/01/14 02:58:29;;;;;;;32.70;18.83;;;;;;;-1.44;73.17;98103.64;124685;1143;22696;-62
2021/01/14 03:00:57;;;;;;;31.10;18.03;;;;;;;-1.42;73.56;98112.26;124717;1143;22881;-62
2021/01/14 03:03:24;;;;;;;32.20;19.23;;;;;;;-1.40;73.11;98112.05;124812;1142;22718;-62
2021/01/14 03:05:51;;;;;;;36.90;18.67;;;;;;;-1.39;73.41;98114.50;124663;1142;23447;-62
2021/01/14 03:08:19;;;;;;;32.80;18.77;;;;;;;-1.37;73.49;98109.77;124774;1142;23874;-61
2021/01/14 03:10:46;;;;;;;31.50;19.00;;;;;;;-1.37;73.47;98116.97;124694;1142;22663;-65
2021/01/14 03:13:13;;;;;;;36.43;18.77;;;;;;;-1.38;73.85;98116.14;124895;1142;22734;-62
2021/01/14 03:15:41;;;;;;;34.60;19.67;;;;;;;-1.38;73.46;98113.47;124718;1142;23368;-62
2021/01/14 03:18:11;;;;;;;37.50;20.33;;;;;;;-1.39;74.02;98122.52;124763;1142;24421;-62
2021/01/14 03:20:41;;;;;;;35.30;19.67;;;;;;;-1.43;73.47;98110.62;124765;1143;22747;-62
2021/01/14 03:23:09;;;;;;;36.87;20.70;;;;;;;-1.45;74.14;98108.19;124778;1142;22653;-61
2021/01/14 03:25:36;;;;;;;36.70;20.10;;;;;;;-1.44;73.77;98108.98;124885;1143;22703;-62
2021/01/14 03:28:03;;;;;;;37.23;21.30;;;;;;;-1.45;73.83;98116.20;124619;1142;22679;-61
2021/01/14 03:30:31;;;;;;;35.87;20.23;;;;;;;-1.45;74.06;98108.19;124709;1142;22696;-62
2021/01/14 03:32:59;;;;;;;36.27;20.63;;;;;;;-1.44;74.12;98106.31;124718;1142;22704;-62
2021/01/14 03:35:26;;;;;;;37.33;20.93;;;;;;;-1.45;74.21;98102.03;124745;1142;22699;-62
2021/01/14 03:37:54;;;;;;;42.37;23.23;;;;;;;-1.45;74.00;98113.53;124774;1142;22666;-63
2021/01/14 03:40:21;;;;;;;39.73;21.40;;;;;;;-1.43;74.20;98116.78;124869;1142;22655;-62
2021/01/14 03:42:48;;;;;;;38.37;20.57;;;;;;;-1.39;74.12;98114.50;124578;1143;23547;-62
2021/01/14 03:45:16;;;;;;;40.10;21.23;;;;;;;-1.42;74.42;98110.41;124743;1143;22775;-63
2021/01/14 03:47:43;;;;;;;42.80;23.00;;;;;;;-1.36;74.24;98113.26;124680;1143;22779;-62
2021/01/14 03:50:11;;;;;;;37.90;21.83;;;;;;;-1.39;74.05;98114.50;124733;1142;22782;-61
2021/01/14 03:52:38;;;;;;;40.73;22.30;;;;;;;-1.39;73.88;98122.52;124708;1142;23433;-62
2021/01/14 03:55:05;;;;;;;41.40;22.10;;;;;;;-1.38;74.22;98129.50;124808;1142;22774;-62
2021/01/14 03:57:36;;;;;;;37.43;20.83;;;;;;;-1.37;74.02;98128.47;124762;1142;22660;-62
2021/01/14 04:00:06;;;;;;;45.43;21.67;;;;;;;-1.36;74.25;98118.60;124860;1142;23974;-62
2021/01/14 04:02:38;;;;;;;40.23;21.30;;;;;;;-1.37;74.08;98125.80;124527;1142;22763;-63
2021/01/14 04:05:08;;;;;;;38.40;20.43;;;;;;;-1.37;74.14;98120.45;124820;1142;22695;-62
2021/01/14 04:07:36;;;;;;;44.90;23.10;;;;;;;-1.36;74.38;98118.60;124623;1142;22661;-62
2021/01/14 04:10:05;;;;;;;38.33;22.30;;;;;;;-1.36;74.38;98113.26;124759;1143;22756;-63
2021/01/14 04:12:32;;;;;;;38.97;21.63;;;;;;;-1.36;74.51;98111.41;124787;1143;23344;-62
2021/01/14 04:14:59;;;;;;;42.23;22.73;;;;;;;-1.35;74.40;98107.70;124685;1142;22703;-62
2021/01/14 04:17:26;;;;;;;41.30;21.83;;;;;;;-1.33;74.15;98112.83;124860;1143;23341;-63
2021/01/14 04:19:54;;;;;;;45.33;24.40;;;;;;;-1.33;75.08;98112.83;124462;1143;22743;-63
2021/01/14 04:22:21;;;;;;;41.20;23.20;;;;;;;-1.31;74.11;98119.60;124680;1143;23553;-62
2021/01/14 04:24:48;;;;;;;39.20;22.00;;;;;;;-1.35;74.44;98115.72;124639;1143;22768;-63
2021/01/14 04:27:16;;;;;;;41.97;23.87;;;;;;;-1.36;74.72;98111.41;124779;1142;22700;-62
2021/01/14 04:29:43;;;;;;;44.87;24.00;;;;;;;-1.36;74.25;98115.93;124535;1142;22768;-62
2021/01/14 04:32:10;;;;;;;47.13;24.97;;;;;;;-1.34;74.69;98105.85;124842;1143;22718;-62
2021/01/14 04:34:38;;;;;;;44.17;24.67;;;;;;;-1.34;74.47;98104.00;124556;1143;23297;-62
2021/01/14 04:37:06;;;;;;;46.53;25.40;;;;;;;-1.31;74.39;98110.77;124786;1142;22681;-62
2021/01/14 04:39:35;;;;;;;45.67;24.70;;;;;;;-1.29;74.23;98114.02;124734;1142;23494;-62
2021/01/14 04:42:05;;;;;;;46.63;24.73;;;;;;;-1.28;73.85;98118.33;124795;1143;23629;-62
2021/01/14 04:44:32;;;;;;;45.00;25.57;;;;;;;-1.31;74.24;98118.78;124535;1143;22687;-61
2021/01/14 04:47:03;;;;;;;42.90;23.80;;;;;;;-1.32;74.24;98119.81;124714;1142;22694;-62
2021/01/14 04:49:31;;;;;;;40.90;21.67;;;;;;;-1.34;74.03;98120.03;124658;1143;22753;-62
2021/01/14 04:52:03;;;;;;;40.13;22.97;;;;;;;-1.34;74.27;98116.53;124601;1143;22671;-62
2021/01/14 04:54:34;;;;;;;64.27;28.30;;;;;;;-1.33;73.71;98123.52;124675;1143;22700;-61
2021/01/14 04:57:17;;;;;;;56.85;27.80;;;;;;;-1.32;73.83;98122.48;124810;1143;22790;-62
2021/01/14 04:59:54;;;;;;;50.17;23.67;;;;;;;-1.32;74.06;98115.29;124648;1143;26273;-61
2021/01/14 05:02:25;;;;;;;47.05;24.52;;;;;;;-1.33;73.96;98118.17;124802;1142;22677;-61
2021/01/14 05:07:02;;;;;;;64.90;28.87;;;;;;;-1.33;74.18;98115.50;119948;1147;25934;-61
2021/01/14 05:09:32;;;;;;;101.90;40.33;;;;;;;-1.33;73.86;98110.98;119911;1148;22939;-61
2021/01/14 05:12:04;;;;;;;72.87;33.50;;;;;;;-1.33;74.15;98107.48;124361;1146;22700;-62
2021/01/14 05:14:32;;;;;;;59.43;27.30;;;;;;;-1.32;73.75;98101.94;124213;1147;22791;-62
2021/01/14 05:16:59;;;;;;;50.60;25.80;;;;;;;-1.31;74.20;98110.77;124240;1147;22685;-62
2021/01/14 05:19:26;;;;;;;44.33;23.53;;;;;;;-1.30;74.38;98110.55;124428;1145;22673;-62
2021/01/14 05:21:54;;;;;;;49.93;25.80;;;;;;;-1.32;73.73;98106.45;124257;1147;22723;-62
2021/01/14 05:24:21;;;;;;;41.40;22.70;;;;;;;-1.32;74.04;98115.29;124246;1146;22668;-62
2021/01/14 05:26:48;;;;;;;46.87;24.23;;;;;;;-1.32;73.93;98115.29;124090;1147;22791;-62
2021/01/14 05:29:16;;;;;;;45.70;24.43;;;;;;;-1.33;74.26;98110.98;124220;1148;22831;-62
2021/01/14 05:31:44;;;;;;;43.03;23.90;;;;;;;-1.36;73.93;98111.41;124163;1146;22793;-62
2021/01/14 05:34:14;;;;;;;41.13;24.30;;;;;;;-1.44;74.00;98103.64;124396;1147;23410;-63
2021/01/14 05:36:52;;;;;;;47.00;24.27;;;;;;;-1.38;74.40;98118.00;124274;1147;22709;-62
2021/01/14 05:39:20;;;;;;;46.40;24.90;;;;;;;-1.40;74.04;98120.06;124188;1147;22768;-62
2021/01/14 05:41:48;;;;;;;39.80;22.70;;;;;;;-1.41;74.21;98119.23;124048;1146;22881;-62
2021/01/14 05:44:16;;;;;;;43.23;24.43;;;;;;;-1.42;74.78;98125.61;124269;1146;22700;-63
2021/01/14 05:46:43;;;;;;;46.47;26.87;;;;;;;-1.42;74.75;98130.95;124099;1146;22694;-62
2021/01/14 05:49:11;;;;;;;51.20;26.60;;;;;;;-1.43;74.47;98127.47;124284;1146;23456;-62
2021/01/14 05:51:39;;;;;;;47.03;24.97;;;;;;;-1.44;74.42;98131.17;124213;1147;23335;-63
2021/01/14 05:54:08;;;;;;;50.83;25.57;;;;;;;-1.44;74.64;98135.69;124195;1147;23460;-62
2021/01/14 05:56:36;;;;;;;49.30;25.27;;;;;;;-1.44;75.00;98130.34;121473;1147;26354;-62
2021/01/14 05:59:14;;;;;;;48.93;26.90;;;;;;;-1.45;75.33;98134.90;119605;1148;26398;-61
2021/01/14 06:01:59;;;;;;;48.13;25.47;;;;;;;-1.45;75.14;98134.90;124204;1146;22896;-63
2021/01/14 06:04:27;;;;;;;41.90;22.53;;;;;;;-1.46;74.37;98138.61;124246;1147;23376;-62
2021/01/14 06:07:02;;;;;;;36.83;21.37;;;;;;;-1.47;74.32;98131.63;124200;1148;22784;-62
2021/01/14 06:09:39;;;;;;;39.37;19.53;;;;;;;-1.47;74.81;98128.95;124266;1148;22699;-62
2021/01/14 06:12:10;;;;;;;45.90;22.80;;;;;;;-1.46;74.40;98133.27;124259;1146;23491;-62
2021/01/14 06:14:38;;;;;;;42.73;21.50;;;;;;;-1.46;74.57;98125.25;124100;1147;23237;-62
2021/01/14 06:17:10;;;;;;;42.07;21.47;;;;;;;-1.44;74.27;98130.34;124349;1146;23383;-62
2021/01/14 06:19:38;;;;;;;37.47;21.60;;;;;;;-1.45;74.83;98126.89;120528;1147;22950;-61
2021/01/14 06:22:05;;;;;;;38.73;20.53;;;;;;;-1.43;74.38;98115.96;124367;1147;22756;-62
2021/01/14 06:24:37;;;;;;;43.50;23.40;;;;;;;-1.43;74.56;98119.45;124266;1145;23697;-62
2021/01/14 06:27:04;;;;;;;43.93;22.43;;;;;;;-1.41;74.40;98124.58;124364;1146;22734;-62
2021/01/14 06:29:39;;;;;;;41.47;22.63;;;;;;;-1.40;74.44;98120.88;124254;1146;22700;-59
2021/01/14 06:32:10;;;;;;;39.27;22.03;;;;;;;-1.39;74.75;98125.19;124297;1147;22714;-62
2021/01/14 06:34:48;;;;;;;41.50;20.17;;;;;;;-1.41;74.40;98127.25;124327;1147;22687;-63
2021/01/14 06:37:22;;;;;;;36.73;19.83;;;;;;;-1.44;74.03;98125.01;124202;1147;23427;-62
2021/01/14 06:39:54;;;;;;;33.87;18.17;;;;;;;-1.47;74.33;98123.61;124326;1146;22689;-62
2021/01/14 06:42:23;;;;;;;35.63;17.47;;;;;;;-1.47;73.87;98117.45;124487;1147;22688;-62
2021/01/14 06:44:57;;;;;;;35.97;18.93;;;;;;;-1.47;74.67;98125.46;124138;1146;22674;-62
2021/01/14 06:47:24;;;;;;;30.93;16.67;;;;;;;-1.47;74.20;98125.46;124188;1148;23364;-63
2021/01/14 06:50:06;;;;;;;30.43;16.47;;;;;;;-1.49;74.00;98123.00;124172;1145;23450;-62
2021/01/14 06:52:33;;;;;;;31.87;18.33;;;;;;;-1.49;74.58;98131.02;124330;1148;22667;-62
2021/01/14 06:55:01;;;;;;;35.07;19.70;;;;;;;-1.51;74.60;98134.93;124064;1148;22661;-65
2021/01/14 06:57:31;;;;;;;37.93;21.67;;;;;;;-1.54;74.09;98136.17;124292;1148;22745;-65
2021/01/14 06:59:58;;;;;;;35.47;19.30;;;;;;;-1.54;74.89;98143.36;124016;1148;22693;-64
2021/01/14 07:02:34;;;;;;;33.37;17.87;;;;;;;-1.57;74.48;98136.59;124367;1146;22673;-65
2021/01/14 07:05:08;;;;;;;35.83;19.27;;;;;;;-1.58;74.56;98137.62;124113;1147;22800;-64
2021/01/14 07:07:46;;;;;;;31.37;18.37;;;;;;;-1.56;74.44;98145.42;124297;1148;23272;-65
2021/01/14 07:10:14;;;;;;;33.38;18.05;;;;;;;-1.58;75.11;98139.47;124273;1147;23727;-65
2021/01/14 07:12:44;;;;;;;41.33;21.60;;;;;;;-1.57;75.02;98141.94;124560;1146;22686;-65
2021/01/14 07:15:11;;;;;;;52.97;28.73;;;;;;;-1.55;74.87;98145.22;124251;1145;23285;-66
2021/01/14 07:17:44;;;;;;;61.87;30.40;;;;;;;-1.53;75.29;98147.67;124428;1146;22760;-65
2021/01/14 07:20:15;;;;;;;48.20;26.27;;;;;;;-1.48;74.96;98150.53;124393;1146;22701;-65
2021/01/14 07:22:59;;;;;;;35.03;19.20;;;;;;;-1.48;75.17;98148.68;124499;1146;23282;-65
2021/01/14 07:25:27;;;;;;;27.30;15.20;;;;;;;-1.48;74.76;98147.86;124330;1146;22800;-65
2021/01/14 07:27:54;;;;;;;28.93;17.20;;;;;;;-1.48;74.47;98155.87;124362;1146;22685;-66
2021/01/14 07:30:22;;;;;;;34.57;19.00;;;;;;;-1.48;74.36;98156.69;124312;1146;22659;-66
2021/01/14 07:32:56;;;;;;;42.23;22.37;;;;;;;-1.48;74.40;98161.22;124501;1146;23591;-66
2021/01/14 07:35:36;;;;;;;40.30;23.13;;;;;;;-1.51;74.31;98153.62;124459;1146;22671;-66
2021/01/14 07:38:04;;;;;;;39.20;22.55;;;;;;;-1.53;74.59;98151.16;124461;1146;22699;-66
2021/01/14 07:40:32;;;;;;;36.37;20.37;;;;;;;-1.51;74.76;98151.77;124447;1146;23573;-66
2021/01/14 07:43:02;;;;;;;39.67;22.00;;;;;;;-1.51;74.72;98150.95;124219;1146;22690;-67
2021/01/14 07:45:32;;;;;;;40.60;24.80;;;;;;;-1.53;75.53;98145.82;124308;1146;22699;-66
2021/01/14 07:48:19;;;;;;;49.97;23.17;;;;;;;-1.53;75.33;98151.16;124189;1146;23796;-65
2021/01/14 07:51:03;;;;;;;29.80;17.27;;;;;;;-1.63;75.38;98144.66;124305;1146;23452;-66
2021/01/14 07:53:30;;;;;;;44.87;23.63;;;;;;;-1.60;75.44;98153.06;124325;1146;22819;-66
2021/01/14 07:56:24;;;;;;;54.43;28.07;;;;;;;-1.61;75.62;98155.95;124379;1146;22677;-66
2021/01/14 07:58:55;;;;;;;42.03;23.07;;;;;;;-1.63;76.10;98153.48;124390;1145;23294;-67
2021/01/14 08:01:23;;;;;;;49.57;25.30;;;;;;;-1.62;76.24;98151.64;124377;1146;23468;-67
2021/01/14 08:03:50;;;;;;;46.70;25.20;;;;;;;-1.62;76.71;98152.45;124264;1146;22681;-66
2021/01/14 08:06:34;;;;;;;48.40;27.10;;;;;;;-1.58;76.61;98160.84;124356;1146;22735;-66
2021/01/14 08:09:08;;;;;;;45.47;24.23;;;;;;;-1.55;76.42;98169.25;124256;1146;22680;-66
2021/01/14 08:11:44;;;;;;;44.00;24.47;;;;;;;-1.52;76.75;98170.67;124459;1146;22680;-65
2021/01/14 08:14:18;;;;;;;50.93;26.47;;;;;;;-1.48;76.62;98170.05;124245;1146;22682;-66
2021/01/14 08:16:46;;;;;;;48.80;27.37;;;;;;;-1.46;77.01;98172.51;124389;1145;22710;-66
2021/01/14 08:19:29;;;;;;;42.87;25.27;;;;;;;-1.47;76.61;98174.36;124230;1145;23280;-67
2021/01/14 08:22:00;;;;;;;45.67;25.13;;;;;;;-1.50;76.43;98177.45;124332;1145;22770;-67
2021/01/14 08:24:59;;;;;;;45.93;24.03;;;;;;;-1.53;76.81;98172.53;124199;1146;22704;-66
2021/01/14 08:27:30;;;;;;;;;;;;;;;-1.52;76.79;98170.67;124390;1145;22687;-66
2021/01/14 08:30:01;;;;;;;45.87;24.63;;;;;;;-1.51;77.00;98172.31;124342;1146;21404;-67
2021/01/14 08:32:30;;;;;;;45.37;24.23;;;;;;;-1.50;76.89;98179.30;124389;1146;22673;-68
2021/01/14 08:34:59;;;;;;;50.80;28.87;;;;;;;-1.48;76.73;98175.39;124264;1146;22704;-66
2021/01/14 08:37:30;;;;;;;49.23;26.30;;;;;;;-1.46;76.74;98177.84;121404;1146;22893;-65
2021/01/14 08:40:16;;;;;;;49.17;28.40;;;;;;;-1.46;76.93;98184.02;121192;1146;24584;-65
2021/01/14 08:42:45;;;;;;;45.87;24.37;;;;;;;-1.47;76.77;98177.03;121253;1147;24324;-65
2021/01/14 08:45:26;;;;;;;45.43;24.83;;;;;;;-1.50;77.18;98180.13;121334;1146;22940;-67
2021/01/14 08:47:55;;;;;;;47.75;25.85;;;;;;;-1.50;77.71;98174.78;121489;1146;23034;-65
2021/01/14 08:50:34;;;;;;;45.37;23.80;;;;;;;-1.52;77.50;98176.02;121401;1146;22924;-67
2021/01/14 08:53:01;;;;;;;50.40;26.80;;;;;;;-1.54;77.49;98175.41;121581;1146;24171;-65
2021/01/14 08:55:29;;;;;;;47.33;25.80;;;;;;;-1.56;77.34;98172.13;121379;1146;23075;-65
2021/01/14 08:57:56;;;;;;;58.67;25.97;;;;;;;-1.62;77.84;98162.32;121408;1147;22901;-64
2021/01/14 09:00:25;;;;;;;43.30;22.90;;;;;;;-1.64;77.97;98164.37;121410;1146;23406;-65
2021/01/14 09:02:52;;;;;;;55.87;27.57;;;;;;;-1.67;78.28;98167.47;121485;1147;22982;-64
2021/01/14 09:05:19;;;;;;;46.33;26.67;;;;;;;-1.70;78.16;98162.55;121409;1147;22914;-65
2021/01/14 09:08:06;;;;;;;53.17;28.13;;;;;;;-1.71;78.09;98171.59;121277;1146;22925;-65
2021/01/14 09:10:47;;;;;;;55.97;28.50;;;;;;;-1.74;78.20;98167.52;121106;1147;22941;-66
2021/01/14 09:13:19;;;;;;;55.97;28.23;;;;;;;-1.75;78.72;98168.55;121196;1146;22911;-66
2021/01/14 09:15:50;;;;;;;62.93;35.53;;;;;;;-1.77;78.93;98156.44;124210;1146;22791;-67
2021/01/14 09:18:18;;;;;;;63.83;32.60;;;;;;;-1.79;79.06;98154.80;124377;1146;22710;-67
2021/01/14 09:20:52;;;;;;;57.13;32.53;;;;;;;-1.76;79.18;98155.41;124276;1146;22694;-65
2021/01/14 09:23:32;;;;;;;66.07;28.77;;;;;;;-1.76;79.48;98153.56;124365;1146;22690;-65
2021/01/14 09:26:11;;;;;;;78.23;34.70;;;;;;;-1.74;79.47;98158.69;124133;1145;22789;-64
2021/01/14 09:28:39;;;;;;;71.87;36.03;;;;;;;-1.72;79.40;98154.75;124409;1146;22763;-65
2021/01/14 09:31:09;;;;;;;72.70;35.60;;;;;;;-1.69;79.80;98154.33;124141;1146;22864;-66
2021/01/14 09:33:38;;;;;;;68.47;34.97;;;;;;;-1.65;79.48;98158.22;124401;1146;22826;-66
2021/01/14 09:36:15;;;;;;;63.60;32.57;;;;;;;-1.61;79.53;98161.29;124283;1146;22727;-66
2021/01/14 09:38:55;;;;;;;72.17;36.08;;;;;;;-1.59;79.38;98160.05;124383;1145;22802;-65
2021/01/14 09:41:33;;;;;;;72.37;33.20;;;;;;;-1.59;79.57;98160.05;121294;1147;23074;-64
2021/01/14 09:44:13;;;;;;;130.93;84.90;;;;;;;-1.58;79.34;98158.17;121229;1146;26370;-66
2021/01/14 09:46:42;;;;;;;188.63;91.80;;;;;;;-1.56;79.42;98156.11;121200;1146;25190;-65
2021/01/14 09:49:18;;;;;;;251.47;83.63;;;;;;;-1.52;79.55;98155.47;121198;1146;22977;-65
2021/01/14 09:51:46;;;;;;;88.65;39.85;;;;;;;-1.52;79.35;98166.16;121292;1147;22908;-66
2021/01/14 09:54:13;;;;;;;60.15;29.85;;;;;;;-1.55;78.91;98165.76;121389;1147;22930;-65
2021/01/14 09:56:43;;;;;;;72.07;33.20;;;;;;;-1.61;79.23;98161.29;121445;1146;22912;-65
2021/01/14 09:59:40;;;;;;;65.50;34.60;;;;;;;-1.61;79.34;98164.78;121521;1146;23193;-65
2021/01/14 10:02:31;;;;;;;65.55;32.35;;;;;;;-1.64;79.57;98151.03;121319;1147;22996;-65
2021/01/14 10:05:00;;;;;;;153.47;59.60;;;;;;;-1.61;79.58;98150.61;121414;1147;24752;-65
2021/01/14 10:07:28;;;;;;;81.80;38.95;;;;;;;-1.63;79.46;98148.15;121452;1146;24587;-65
2021/01/14 10:10:04;;;;;;;86.80;36.20;;;;;;;-1.62;79.58;98151.64;121458;1147;22929;-66
2021/01/14 10:12:33;;;;;;;77.53;37.33;;;;;;;-1.62;79.47;98152.45;121422;1147;22943;-65
2021/01/14 10:15:08;;;;;;;81.50;36.80;;;;;;;-1.61;79.44;98150.61;121450;1147;22923;-66
2021/01/14 10:17:38;;;;;;;63.40;33.93;;;;;;;-1.59;80.00;98148.55;124373;1147;22932;-66
2021/01/14 10:20:10;;;;;;;55.57;29.70;;;;;;;-1.58;79.63;98153.65;124261;1146;23630;-66
2021/01/14 10:22:45;;;;;;;60.80;29.20;;;;;;;-1.62;79.74;98148.97;124371;1146;22743;-66
2021/01/14 10:25:13;;;;;;;54.87;28.87;;;;;;;-1.63;79.76;98150.81;124299;1145;22911;-66
2021/01/14 10:27:40;;;;;;;62.90;30.93;;;;;;;-1.63;79.94;98153.48;124367;1145;22671;-66
2021/01/14 10:30:22;;;;;;;57.27;30.20;;;;;;;-1.61;80.12;98147.94;124176;1146;23504;-64
2021/01/14 10:32:50;;;;;;;89.33;49.97;;;;;;;-1.60;79.74;98142.39;124350;1145;22713;-67
2021/01/14 10:35:22;;;;;;;58.00;29.93;;;;;;;-1.58;79.95;98134.95;124220;1146;23335;-65
2021/01/14 10:38:03;;;;;;;51.63;28.83;;;;;;;-1.55;80.30;98147.06;124338;1146;22728;-67
2021/01/14 10:40:38;;;;;;;97.30;38.40;;;;;;;-1.56;79.98;98142.75;124308;1146;24220;-66
2021/01/14 10:43:09;;;;;;;115.33;45.30;;;;;;;-1.55;79.87;98134.53;124457;1146;22765;-67
2021/01/14 10:45:38;;;;;;;73.80;32.00;;;;;;;-1.54;80.09;98132.68;123620;1146;22930;-69
2021/01/14 10:48:10;;;;;;;99.73;37.03;;;;;;;-1.50;80.20;98133.89;121061;1147;22904;-69
2021/01/14 10:50:44;;;;;;;81.40;35.80;;;;;;;-1.50;80.90;98129.38;121139;1147;22938;-69
2021/01/14 10:53:12;;;;;;;60.23;30.93;;;;;;;-1.47;80.24;98123.61;121117;1146;22942;-69
2021/01/14 10:55:44;;;;;;;109.70;40.00;;;;;;;-1.44;79.98;98123.16;121015;1146;23114;-69
2021/01/14 10:58:19;;;;;;;137.23;47.20;;;;;;;-1.44;80.05;98120.48;121098;1147;23078;-69
2021/01/14 11:00:47;;;;;;;63.80;32.13;;;;;;;-1.43;80.42;98116.78;121022;1147;22941;-69
2021/01/14 11:03:20;;;;;;;82.83;36.17;;;;;;;-1.44;80.28;98123.16;121119;1146;22927;-69
2021/01/14 11:05:54;;;;;;;110.80;43.73;;;;;;;-1.43;80.02;98121.30;121015;1147;22996;-69
2021/01/14 11:08:22;;;;;;;64.63;32.47;;;;;;;-1.42;80.04;98120.27;120963;1146;27156;-69
2021/01/14 11:11:04;;;;;;;81.50;36.00;;;;;;;-1.43;80.36;98115.96;121073;1146;22942;-68
2021/01/14 11:13:46;;;;;;;57.60;29.97;;;;;;;-1.44;79.89;98117.81;121082;1146;25066;-68
2021/01/14 11:16:16;;;;;;;108.43;40.43;;;;;;;-1.45;80.34;98108.19;121078;1147;22940;-69
2021/01/14 11:18:50;;;;;;;376.17;105.77;;;;;;;-1.46;80.48;98114.56;121121;1146;24394;-69
2021/01/14 11:21:18;;;;;;;84.30;37.43;;;;;;;-1.46;80.23;98106.55;121042;1147;22784;-68
2021/01/14 11:23:46;;;;;;;148.90;49.33;;;;;;;-1.44;80.80;98103.64;121009;1146;27328;-68
2021/01/14 11:26:18;;;;;;;349.33;93.33;;;;;;;-1.43;80.42;98105.28;121079;1147;22929;-69
2021/01/14 11:28:45;;;;;;;167.80;62.23;;;;;;;-1.43;80.56;98103.42;124492;1146;22853;-69